Terminal Aerodrome Forecast
Issued by NWS Albuquerque, NM

Home | Current Version | Previous Version | Text Only | Print | Product List | Glossary On
Versions: 1 2 3 4 5 6 7 8 9 10 11 12 13 14 15
000
FTUS45 KABQ 040500
TAFABQ
TAF
KABQ 040538Z 0406/0506 33006KT P6SM FEW100
     FM041200 36006KT P6SM BKN070
     FM041900 33014G24KT P6SM BKN090
     FM050200 36012KT P6SM SCT100=

USA.gov is the U.S. government's official web portal to all federal, state and local government web resources and services.